createdAt,value
2018-06-18T00:02:08.631Z,101556.96
2018-06-18T00:04:38.049Z,101559.30
2018-06-18T00:07:07.569Z,101555.16
2018-06-18T00:09:38.603Z,101557.41
2018-06-18T00:12:08.079Z,101562.87
2018-06-18T00:14:37.901Z,101570.64
2018-06-18T00:17:07.491Z,101573.38
2018-06-18T00:19:38.595Z,101563.58
2018-06-18T00:22:12.240Z,101561.36
2018-06-18T00:24:41.666Z,101553.13
2018-06-18T00:27:11.073Z,101551.89
2018-06-18T00:29:40.477Z,101550.91
2018-06-18T00:32:10.339Z,101552.80
2018-06-18T00:34:41.687Z,101548.89
2018-06-18T00:37:12.646Z,101545.41
2018-06-18T00:39:42.444Z,101547.95
2018-06-18T00:42:12.142Z,101548.73
2018-06-18T00:44:41.572Z,101548.86
2018-06-18T00:47:10.897Z,101544.64
2018-06-18T00:49:40.677Z,101535.52
2018-06-18T00:52:10.207Z,101537.43
2018-06-18T00:54:39.575Z,101544.02
2018-06-18T00:57:09.013Z,101540.15
2018-06-18T00:59:39.257Z,101534.63
2018-06-18T01:02:12.651Z,101532.71
2018-06-18T01:04:42.183Z,101517.13
2018-06-18T01:07:11.746Z,101519.64
2018-06-18T01:09:41.199Z,101515.44
2018-06-18T01:12:10.772Z,101512.93
2018-06-18T01:14:40.136Z,101522.73
2018-06-18T01:17:09.492Z,101521.23
2018-06-18T01:19:39.079Z,101521.02
2018-06-18T01:22:08.434Z,101524.87
2018-06-18T01:24:54.455Z,101526.27
2018-06-18T01:27:23.765Z,101521.87
2018-06-18T01:29:53.219Z,101526.80
2018-06-18T01:32:24.181Z,101524.55
2018-06-18T01:34:55.306Z,101526.08
2018-06-18T01:40:01.485Z,101536.86
2018-06-18T01:42:32.909Z,101534.34
2018-06-18T01:45:06.764Z,101533.03
2018-06-18T01:47:38.907Z,101527.44
2018-06-18T01:50:10.900Z,101523.95
2018-06-18T01:52:43.190Z,101528.16
2018-06-18T01:55:13.031Z,101530.26
2018-06-18T01:57:42.888Z,101529.02
2018-06-18T02:00:12.866Z,101524.22
2018-06-18T02:02:47.172Z,101521.66
2018-06-18T02:05:18.423Z,101527.15
2018-06-18T02:07:48.003Z,101531.28
2018-06-18T02:13:14.212Z,101521.63
2018-06-18T02:15:43.540Z,101523.06
2018-06-18T02:18:13.192Z,101520.31
2018-06-18T02:20:47.187Z,101521.55
2018-06-18T02:23:17.865Z,101516.38
2018-06-18T02:25:47.418Z,101528.20
2018-06-18T02:28:22.026Z,101518.21
2018-06-18T02:30:57.144Z,101514.80
2018-06-18T02:33:31.867Z,101521.89
2018-06-18T02:37:06.998Z,101522.80
2018-06-18T02:39:41.577Z,101510.45
2018-06-18T02:42:12.698Z,101513.52
2018-06-18T02:44:43.452Z,101523.66
2018-06-18T02:47:15.434Z,101522.34
2018-06-18T02:49:45.064Z,101509.54
2018-06-18T02:52:14.904Z,101516.67
2018-06-18T02:54:44.797Z,101519.79
2018-06-18T02:57:15.448Z,101524.11
2018-06-18T02:59:44.677Z,101529.17
2018-06-18T03:02:14.195Z,101526.17
2018-06-18T03:04:43.607Z,101519.67
2018-06-18T03:07:14.015Z,101517.23
2018-06-18T03:09:43.354Z,101519.00
2018-06-18T03:12:12.829Z,101514.01
2018-06-18T03:14:42.178Z,101515.13
2018-06-18T03:17:11.593Z,101514.95
2018-06-18T03:19:46.047Z,101513.48
2018-06-18T03:22:20.985Z,101517.05
2018-06-18T03:24:57.675Z,101515.58
2018-06-18T03:27:32.058Z,101518.28
2018-06-18T03:30:01.398Z,101519.94
2018-06-18T03:32:31.331Z,101523.62
2018-06-18T03:35:00.637Z,101523.16
2018-06-18T03:37:29.995Z,101525.31
2018-06-18T03:39:59.414Z,101527.30
2018-06-18T03:42:28.850Z,101529.84
2018-06-18T03:45:07.224Z,101533.30
2018-06-18T03:47:36.692Z,101529.09
2018-06-18T03:50:07.951Z,101544.27
2018-06-18T03:52:38.174Z,101537.28
2018-06-18T03:55:16.737Z,101535.59
2018-06-18T03:57:47.539Z,101532.29
2018-06-18T04:00:17.204Z,101535.44
2018-06-18T04:03:01.205Z,101535.82
2018-06-18T04:05:35.502Z,101541.60
2018-06-18T04:08:11.374Z,101541.30
2018-06-18T04:10:47.023Z,101536.91
2018-06-18T04:13:16.351Z,101537.88
2018-06-18T04:15:48.313Z,101545.13
2018-06-18T04:18:17.640Z,101543.73
2018-06-18T04:20:50.007Z,101542.50
2018-06-18T04:23:19.409Z,101541.11
2018-06-18T04:25:48.827Z,101546.17
2018-06-18T04:28:18.235Z,101547.75
2018-06-18T04:30:47.894Z,101548.16
2018-06-18T04:33:23.277Z,101552.44
2018-06-18T04:35:52.612Z,101547.19
2018-06-18T04:38:21.933Z,101543.77
2018-06-18T04:40:51.213Z,101553.23
2018-06-18T04:43:25.794Z,101545.08
2018-06-18T04:46:00.567Z,101544.22
2018-06-18T04:48:35.272Z,101548.06
2018-06-18T04:51:04.668Z,101555.59
2018-06-18T04:53:34.244Z,101552.03
2018-06-18T04:56:04.105Z,101545.45
2018-06-18T04:58:33.493Z,101537.83
2018-06-18T05:01:19.531Z,101536.78
2018-06-18T05:03:48.893Z,101533.37
2018-06-18T05:06:18.187Z,101540.12
2018-06-18T05:10:54.265Z,101544.36
2018-06-18T05:13:23.574Z,101555.06
2018-06-18T05:15:54.287Z,101557.48
2018-06-18T05:18:23.675Z,101559.11
2018-06-18T05:20:52.935Z,101558.27
2018-06-18T05:23:22.313Z,101552.22
2018-06-18T05:26:01.019Z,101554.08
2018-06-18T05:28:30.423Z,101552.48
2018-06-18T05:30:59.874Z,101547.88
2018-06-18T05:33:29.127Z,101553.27
2018-06-18T05:35:58.631Z,101557.55
2018-06-18T05:38:32.841Z,101557.52
2018-06-18T05:41:02.309Z,101549.75
2018-06-18T05:43:32.226Z,101554.93
2018-06-18T05:46:01.625Z,101561.27
2018-06-18T05:48:30.984Z,101561.80
2018-06-18T05:51:00.393Z,101559.57
2018-06-18T05:53:29.731Z,101558.59
2018-06-18T05:55:59.130Z,101553.53
2018-06-18T05:58:28.470Z,101557.60
2018-06-18T06:00:57.607Z,101557.27
2018-06-18T06:03:27.019Z,101556.03
2018-06-18T06:05:56.860Z,101558.91
2018-06-18T06:08:26.115Z,101557.02
2018-06-18T06:10:55.446Z,101557.56
2018-06-18T06:13:24.772Z,101555.13
2018-06-18T06:15:54.102Z,101558.09
2018-06-18T06:18:23.447Z,101563.53
2018-06-18T06:21:04.537Z,101560.11
2018-06-18T06:23:33.955Z,101554.22
2018-06-18T06:26:03.480Z,101551.89
2018-06-18T06:28:32.814Z,101555.47
2018-06-18T06:31:02.329Z,101553.60
2018-06-18T06:33:31.664Z,101558.17
2018-06-18T06:36:01.810Z,101559.11
2018-06-18T06:38:31.121Z,101563.22
2018-06-18T06:41:00.464Z,101570.42
2018-06-18T06:43:29.779Z,101576.07
2018-06-18T06:45:59.119Z,101572.37
2018-06-18T06:48:28.471Z,101578.25
2018-06-18T06:50:57.754Z,101578.58
2018-06-18T06:53:27.129Z,101577.05
2018-06-18T06:55:56.467Z,101579.39
2018-06-18T06:58:25.835Z,101575.09
2018-06-18T07:00:55.201Z,101581.28
2018-06-18T07:03:25.499Z,101581.12
2018-06-18T07:06:25.431Z,101579.11
2018-06-18T07:08:54.543Z,101582.02
2018-06-18T07:11:23.879Z,101586.80
2018-06-18T07:13:53.254Z,101578.89
2018-06-18T07:16:22.620Z,101576.55
2018-06-18T07:18:51.922Z,101572.23
2018-06-18T07:21:21.330Z,101586.86
2018-06-18T07:23:50.653Z,101582.58
2018-06-18T07:26:20.089Z,101581.89
2018-06-18T07:28:49.408Z,101584.31
2018-06-18T07:31:18.905Z,101580.99
2018-06-18T07:33:48.209Z,101586.20
2018-06-18T07:36:17.630Z,101585.63
2018-06-18T07:38:46.910Z,101584.78
2018-06-18T07:41:16.200Z,101596.46
2018-06-18T07:43:45.526Z,101593.91
2018-06-18T07:46:15.039Z,101598.27
2018-06-18T07:48:44.413Z,101591.14
2018-06-18T07:51:13.741Z,101589.44
2018-06-18T07:53:43.025Z,101583.08
2018-06-18T07:56:12.342Z,101585.22
2018-06-18T07:58:41.725Z,101581.89
2018-06-18T08:01:11.110Z,101579.95
2018-06-18T08:03:40.631Z,101580.39
2018-06-18T08:06:10.209Z,101571.88
2018-06-18T08:08:39.655Z,101572.39
2018-06-18T08:11:09.099Z,101572.85
2018-06-18T08:13:38.528Z,101573.64
2018-06-18T08:16:07.969Z,101570.58
2018-06-18T08:18:37.445Z,101568.55
2018-06-18T08:21:06.879Z,101575.07
2018-06-18T08:23:36.257Z,101573.64
2018-06-18T08:26:05.701Z,101574.87
2018-06-18T08:28:35.202Z,101585.27
2018-06-18T08:31:04.732Z,101580.77
2018-06-18T08:33:34.125Z,101577.72
2018-06-18T08:36:03.525Z,101578.05
2018-06-18T08:38:32.814Z,101575.06
2018-06-18T08:41:02.125Z,101574.95
2018-06-18T08:43:31.472Z,101577.52
2018-06-18T08:46:00.872Z,101568.50
2018-06-18T08:48:35.503Z,101577.88
2018-06-18T08:51:10.171Z,101575.52
2018-06-18T08:53:44.829Z,101574.85
2018-06-18T08:56:19.432Z,101565.96
2018-06-18T08:58:53.864Z,101559.73
2018-06-18T09:01:27.240Z,101563.59
2018-06-18T09:04:01.682Z,101557.82
2018-06-18T09:06:31.277Z,101561.41
2018-06-18T09:09:00.616Z,101569.47
2018-06-18T09:11:30.007Z,101572.95
2018-06-18T09:13:59.326Z,101573.03
2018-06-18T09:16:28.909Z,101572.80
2018-06-18T09:18:58.255Z,101567.84
2018-06-18T09:21:27.651Z,101565.48
2018-06-18T09:23:57.059Z,101568.48
2018-06-18T09:26:26.579Z,101574.86
2018-06-18T09:28:56.139Z,101570.87
2018-06-18T09:31:25.571Z,101575.30
2018-06-18T09:33:54.913Z,101579.17
2018-06-18T09:36:24.330Z,101571.27
2018-06-18T09:38:53.573Z,101569.02
2018-06-18T09:41:22.954Z,101560.41
2018-06-18T09:43:52.333Z,101557.07
2018-06-18T09:46:21.632Z,101557.26
2018-06-18T09:48:56.068Z,101547.22
2018-06-18T09:51:30.648Z,101558.30
2018-06-18T09:54:05.240Z,101550.62
2018-06-18T09:56:39.749Z,101552.27
2018-06-18T09:59:14.498Z,101551.14
2018-06-18T10:01:43.828Z,101549.95
2018-06-18T10:04:13.209Z,101537.66
2018-06-18T10:06:42.511Z,101535.25
2018-06-18T10:09:12.007Z,101538.77
2018-06-18T10:11:41.307Z,101543.92
2018-06-18T10:14:11.950Z,101543.47
2018-06-18T10:16:41.307Z,101547.62
2018-06-18T10:19:10.710Z,101548.58
2018-06-18T10:21:40.165Z,101547.60
2018-06-18T10:24:09.704Z,101560.80
2018-06-18T10:26:39.074Z,101555.52
2018-06-18T10:29:08.623Z,101560.27
2018-06-18T10:31:37.826Z,101556.88
2018-06-18T10:34:12.347Z,101555.27
2018-06-18T10:37:50.594Z,101557.34
2018-06-18T10:40:25.181Z,101558.87
2018-06-18T10:42:59.821Z,101558.20
2018-06-18T10:45:29.157Z,101557.62
2018-06-18T10:47:58.469Z,101558.17
2018-06-18T10:50:27.815Z,101561.95
2018-06-18T10:52:57.173Z,101555.94
2018-06-18T10:55:26.566Z,101561.42
2018-06-18T10:57:55.885Z,101560.15
2018-06-18T11:00:27.390Z,101563.55
2018-06-18T11:02:56.716Z,101561.19
2018-06-18T11:05:31.277Z,101561.78
2018-06-18T11:08:00.712Z,101569.12
2018-06-18T11:10:30.129Z,101562.13
2018-06-18T11:12:59.458Z,101562.31
2018-06-18T11:15:28.890Z,101567.45
2018-06-18T11:18:03.373Z,101566.67
2018-06-18T11:20:38.050Z,101562.69
2018-06-18T11:23:12.675Z,101563.44
2018-06-18T11:25:47.078Z,101570.26
2018-06-18T11:28:16.442Z,101564.63
2018-06-18T11:30:45.734Z,101572.31
2018-06-18T11:33:15.159Z,101575.33
2018-06-18T11:35:44.573Z,101573.91
2018-06-18T11:38:13.891Z,101574.48
2018-06-18T11:40:43.278Z,101568.62
2018-06-18T11:43:12.623Z,101560.63
2018-06-18T11:45:41.977Z,101566.86
2018-06-18T11:48:19.027Z,101567.73
2018-06-18T11:50:48.804Z,101564.70
2018-06-18T11:53:18.900Z,101568.05
2018-06-18T11:55:48.317Z,101573.23
2018-06-18T11:58:23.784Z,101572.61
2018-06-18T12:00:58.607Z,101571.84
2018-06-18T12:03:33.247Z,101568.80
2018-06-18T12:06:07.810Z,101580.91
2018-06-18T12:08:42.368Z,101581.20
2018-06-18T12:11:11.745Z,101579.80
2018-06-18T12:13:41.165Z,101582.72
2018-06-18T12:16:10.540Z,101583.76
2018-06-18T12:18:39.959Z,101593.23
2018-06-18T12:21:09.639Z,101591.52
2018-06-18T12:23:39.152Z,101582.04
2018-06-18T12:26:08.749Z,101577.19
2018-06-18T12:28:38.191Z,101580.18
2018-06-18T12:31:07.860Z,101585.98
2018-06-18T12:33:37.637Z,101586.64
2018-06-18T12:36:08.486Z,101582.06
2018-06-18T12:38:37.899Z,101583.39
2018-06-18T12:41:07.927Z,101586.44
2018-06-18T12:43:40.661Z,101588.95
2018-06-18T12:46:15.189Z,101593.09
2018-06-18T12:48:49.688Z,101594.22
2018-06-18T12:51:24.143Z,101595.81
2018-06-18T12:53:59.650Z,101585.68
2018-06-18T12:56:34.197Z,101587.89
2018-06-18T12:59:03.280Z,101585.95
2018-06-18T13:01:35.780Z,101591.16
2018-06-18T13:04:07.657Z,101592.38
2018-06-18T13:06:37.243Z,101592.09
2018-06-18T13:09:09.579Z,101595.91
2018-06-18T13:11:39.103Z,101602.36
2018-06-18T13:14:08.646Z,101602.19
2018-06-18T13:16:38.124Z,101602.99
2018-06-18T13:19:07.581Z,101603.68
2018-06-18T13:21:37.006Z,101598.53
2018-06-18T13:24:06.587Z,101601.20
2018-06-18T13:26:36.092Z,101593.30
2018-06-18T13:29:05.616Z,101599.44
2018-06-18T13:31:35.048Z,101597.74
2018-06-18T13:34:04.423Z,101598.88
2018-06-18T13:36:33.967Z,101598.98
2018-06-18T13:39:08.551Z,101604.16
2018-06-18T13:43:50.157Z,101597.16
2018-06-18T13:46:24.712Z,101599.39
2018-06-18T13:48:55.174Z,101603.37
2018-06-18T13:51:25.945Z,101601.65
2018-06-18T13:53:55.499Z,101601.42
2018-06-18T13:56:25.267Z,101603.19
2018-06-18T13:58:55.377Z,101603.55
2018-06-18T14:01:24.690Z,101608.17
2018-06-18T14:03:54.036Z,101605.07
2018-06-18T14:06:23.449Z,101611.30
2018-06-18T14:08:52.801Z,101621.12
2018-06-18T14:11:22.157Z,101617.14
2018-06-18T14:13:51.568Z,101616.97
2018-06-18T14:16:20.882Z,101617.72
2018-06-18T14:18:50.380Z,101606.38
2018-06-18T14:21:20.615Z,101598.43
2018-06-18T14:23:50.283Z,101596.63
2018-06-18T14:26:19.825Z,101584.98
2018-06-18T14:28:49.299Z,101583.28
2018-06-18T14:31:24.239Z,101577.21
2018-06-18T14:34:00.122Z,101575.97
2018-06-18T14:36:34.688Z,101575.44
2018-06-18T14:39:10.000Z,101574.78
2018-06-18T14:41:39.814Z,101571.48
2018-06-18T14:44:09.605Z,101577.87
2018-06-18T14:46:39.147Z,101586.46
2018-06-18T14:49:08.696Z,101586.07
2018-06-18T14:51:38.154Z,101580.67
2018-06-18T14:54:08.157Z,101580.80
2018-06-18T14:56:38.108Z,101576.30
2018-06-18T14:59:13.972Z,101578.48
2018-06-18T15:01:43.776Z,101566.71
2018-06-18T15:04:13.067Z,101564.16
2018-06-18T15:06:42.549Z,101563.83
2018-06-18T15:09:12.947Z,101557.55
2018-06-18T15:11:43.028Z,101556.09
2018-06-18T15:14:12.293Z,101554.66
2018-06-18T15:16:41.750Z,101564.45
2018-06-18T15:19:12.206Z,101558.36
2018-06-18T15:21:46.674Z,101559.16
2018-06-18T15:24:23.553Z,101562.09
2018-06-18T15:26:52.910Z,101564.95
2018-06-18T15:29:22.184Z,101559.83
2018-06-18T15:31:51.512Z,101562.26
2018-06-18T15:34:20.808Z,101559.91
2018-06-18T15:36:50.354Z,101552.97
2018-06-18T15:39:19.647Z,101554.58
2018-06-18T15:41:49.029Z,101546.34
2018-06-18T15:44:18.320Z,101549.22
2018-06-18T15:46:49.789Z,101535.05
2018-06-18T15:49:20.268Z,101532.63
2018-06-18T15:51:49.614Z,101525.00
2018-06-18T15:54:18.925Z,101522.38
2018-06-18T15:56:48.254Z,101512.42
2018-06-18T15:59:17.550Z,101515.39
2018-06-18T16:01:48.162Z,101522.52
2018-06-18T16:04:17.444Z,101517.02
2018-06-18T16:06:47.190Z,101515.44
2018-06-18T16:09:16.509Z,101507.23
2018-06-18T16:11:45.961Z,101512.48
2018-06-18T16:14:15.064Z,101506.59
2018-06-18T16:16:45.340Z,101520.14
2018-06-18T16:19:15.918Z,101518.78
2018-06-18T16:21:45.484Z,101520.27
2018-06-18T16:24:14.779Z,101522.72
2018-06-18T16:26:44.158Z,101512.95
2018-06-18T16:29:13.548Z,101518.70
2018-06-18T16:31:43.217Z,101521.58
2018-06-18T16:34:12.551Z,101525.35
2018-06-18T16:36:41.899Z,101522.81
2018-06-18T16:39:12.785Z,101515.34
2018-06-18T16:41:42.196Z,101524.72
2018-06-18T16:44:11.534Z,101522.79
2018-06-18T16:46:40.917Z,101517.45
2018-06-18T16:49:10.339Z,101521.69
2018-06-18T16:51:39.686Z,101527.34
2018-06-18T16:54:09.076Z,101527.63
2018-06-18T16:57:20.559Z,101526.61
2018-06-18T16:59:52.791Z,101529.31
2018-06-18T17:02:22.111Z,101528.07
2018-06-18T17:04:51.414Z,101512.42
2018-06-18T17:07:20.778Z,101509.36
2018-06-18T17:09:50.118Z,101507.56
2018-06-18T17:12:19.442Z,101507.84
2018-06-18T17:14:48.952Z,101507.61
2018-06-18T17:17:18.453Z,101509.72
2018-06-18T17:19:47.927Z,101504.13
2018-06-18T17:22:17.302Z,101502.30
2018-06-18T17:24:46.626Z,101502.17
2018-06-18T17:27:16.083Z,101504.05
2018-06-18T17:29:45.416Z,101504.69
2018-06-18T17:32:14.753Z,101509.22
2018-06-18T17:34:44.218Z,101520.77
2018-06-18T17:37:13.586Z,101516.44
2018-06-18T17:39:42.866Z,101521.20
2018-06-18T17:42:12.483Z,101518.96
2018-06-18T17:44:41.805Z,101517.66
2018-06-18T17:47:11.153Z,101514.84
2018-06-18T17:49:40.817Z,101510.94
2018-06-18T17:52:10.343Z,101516.92
2018-06-18T17:54:39.934Z,101513.59
2018-06-18T17:57:09.426Z,101522.66
2018-06-18T17:59:38.955Z,101523.52
2018-06-18T18:02:08.649Z,101525.08
2018-06-18T18:04:37.882Z,101520.72
2018-06-18T18:07:07.406Z,101521.02
2018-06-18T18:09:36.861Z,101523.30
2018-06-18T18:12:06.564Z,101536.56
2018-06-18T18:14:36.193Z,101533.44
2018-06-18T18:17:06.073Z,101528.73
2018-06-18T18:19:36.986Z,101533.41
2018-06-18T18:22:08.383Z,101535.31
2018-06-18T18:24:37.942Z,101536.61
2018-06-18T18:27:09.499Z,101528.75
2018-06-18T18:29:38.766Z,101536.68
2018-06-18T18:32:08.311Z,101536.33
2018-06-18T18:34:37.882Z,101536.98
2018-06-18T18:37:07.352Z,101537.94
2018-06-18T18:39:36.729Z,101533.11
2018-06-18T18:42:06.187Z,101524.87
2018-06-18T18:44:35.618Z,101537.38
2018-06-18T18:47:05.107Z,101546.26
2018-06-18T18:49:34.442Z,101545.78
2018-06-18T18:52:03.913Z,101544.36
2018-06-18T18:56:01.130Z,101549.20
2018-06-18T18:59:42.867Z,101547.98
2018-06-18T19:02:15.384Z,101558.23
2018-06-18T19:05:00.138Z,101561.81
2018-06-18T19:07:43.730Z,101558.41
2018-06-18T19:10:37.451Z,101553.28
2018-06-18T19:13:14.216Z,101552.72
2018-06-18T19:15:43.610Z,101553.78
2018-06-18T19:18:12.890Z,101545.72
2018-06-18T19:20:51.004Z,101550.64
2018-06-18T19:23:20.355Z,101549.96
2018-06-18T19:25:51.533Z,101547.73
2018-06-18T19:28:22.187Z,101552.36
2018-06-18T19:30:59.807Z,101562.31
2018-06-18T19:33:49.464Z,101564.55
2018-06-18T19:36:20.863Z,101557.53
2018-06-18T19:38:52.139Z,101566.09
2018-06-18T19:41:21.190Z,101570.70
2018-06-18T19:43:50.689Z,101568.52
2018-06-18T19:46:26.930Z,101571.33
2018-06-18T19:49:12.891Z,101577.39
2018-06-18T19:51:46.646Z,101578.25
2018-06-18T19:54:23.794Z,101580.20
2018-06-18T19:56:54.321Z,101583.87
2018-06-18T19:59:24.487Z,101588.49
2018-06-18T20:01:53.895Z,101595.07
2018-06-18T20:04:23.315Z,101594.21
2018-06-18T20:06:52.718Z,101602.73
2018-06-18T20:09:23.666Z,101599.86
2018-06-18T20:11:53.014Z,101601.87
2018-06-18T20:14:23.481Z,101600.76
2018-06-18T20:16:53.018Z,101604.78
2018-06-18T20:19:22.318Z,101611.38
2018-06-18T20:21:51.632Z,101611.74
2018-06-18T20:24:20.984Z,101616.52
2018-06-18T20:26:50.285Z,101623.64
2018-06-18T20:29:19.521Z,101628.93
2018-06-18T20:31:48.865Z,101629.63
2018-06-18T20:34:18.255Z,101627.66
2018-06-18T20:36:47.597Z,101638.63
2018-06-18T20:39:35.177Z,101634.73
2018-06-18T20:42:20.708Z,101638.91
2018-06-18T20:45:13.372Z,101640.88
2018-06-18T20:47:59.433Z,101643.36
2018-06-18T20:50:48.338Z,101647.57
2018-06-18T20:53:36.019Z,101646.00
2018-06-18T20:56:16.537Z,101646.72
2018-06-18T20:59:02.736Z,101651.85
2018-06-18T21:01:42.616Z,101646.31
2018-06-18T21:04:23.249Z,101653.64
2018-06-18T21:07:20.769Z,101653.44
2018-06-18T21:10:19.914Z,101652.62
2018-06-18T21:13:17.214Z,101656.08
2018-06-18T21:15:52.499Z,101661.42
2018-06-18T21:18:21.920Z,101669.48
2018-06-18T21:20:51.360Z,101670.19
2018-06-18T21:23:20.732Z,101674.06
2018-06-18T21:25:52.281Z,101667.86
2018-06-18T21:28:21.882Z,101667.89
2018-06-18T21:30:51.172Z,101672.06
2018-06-18T21:33:20.507Z,101662.60
2018-06-18T21:35:49.833Z,101663.18
2018-06-18T21:38:19.166Z,101656.02
2018-06-18T21:40:48.677Z,101675.06
2018-06-18T21:43:17.945Z,101671.25
2018-06-18T21:45:47.334Z,101663.97
2018-06-18T21:48:16.700Z,101667.77
2018-06-18T21:50:45.997Z,101672.89
2018-06-18T21:53:15.367Z,101679.01
2018-06-18T21:55:44.741Z,101680.56
2018-06-18T21:58:14.079Z,101685.92
2018-06-18T22:00:52.763Z,101682.48
2018-06-18T22:03:26.567Z,101687.20
2018-06-18T22:05:55.945Z,101684.15
2018-06-18T22:08:27.498Z,101695.41
2018-06-18T22:10:56.886Z,101693.59
2018-06-18T22:13:26.222Z,101692.62
2018-06-18T22:15:55.400Z,101687.48
2018-06-18T22:18:24.854Z,101691.66
2018-06-18T22:20:54.158Z,101696.28
2018-06-18T22:23:23.589Z,101693.45
2018-06-18T22:25:52.913Z,101688.94
2018-06-18T22:28:32.887Z,101688.16
2018-06-18T22:31:02.598Z,101699.20
2018-06-18T22:33:31.950Z,101690.41
2018-06-18T22:36:01.418Z,101694.36
2018-06-18T22:38:30.711Z,101695.97
2018-06-18T22:41:00.040Z,101701.23
2018-06-18T22:43:29.480Z,101698.10
2018-06-18T22:45:58.791Z,101704.52
2018-06-18T22:48:28.094Z,101705.17
2018-06-18T22:50:57.377Z,101698.87
2018-06-18T22:53:26.784Z,101699.97
2018-06-18T22:55:56.080Z,101694.00
2018-06-18T22:58:25.499Z,101696.42
2018-06-18T23:00:57.212Z,101694.06
2018-06-18T23:03:26.577Z,101702.68
2018-06-18T23:05:55.909Z,101694.69
2018-06-18T23:08:25.379Z,101699.64
2018-06-18T23:10:54.822Z,101702.47
2018-06-18T23:13:29.803Z,101706.79
2018-06-18T23:15:59.628Z,101700.66
2018-06-18T23:18:29.322Z,101705.59
2018-06-18T23:20:58.709Z,101703.45
2018-06-18T23:23:28.047Z,101706.60
2018-06-18T23:25:57.383Z,101704.47
2018-06-18T23:28:49.784Z,101704.46
2018-06-18T23:31:19.176Z,101708.33
2018-06-18T23:33:48.547Z,101702.39
2018-06-18T23:36:17.899Z,101701.11
2018-06-18T23:38:47.275Z,101703.02
2018-06-18T23:41:16.854Z,101704.90
2018-06-18T23:43:46.206Z,101697.50
2018-06-18T23:46:15.575Z,101706.25
2018-06-18T23:48:44.972Z,101705.47
2018-06-18T23:51:14.284Z,101705.09
2018-06-18T23:53:43.562Z,101701.36
2018-06-18T23:56:12.917Z,101707.77
2018-06-18T23:58:42.287Z,101701.34
